sensor_id;sensor_type;location;lat;lon;timestamp;temperature;humidity
18868;DHT22;9563;49.240;9.088;2023-03-01T00:00:14;1.40;99.90
18868;DHT22;9563;49.240;9.088;2023-03-01T00:02:41;1.40;99.90
18868;DHT22;9563;49.240;9.088;2023-03-01T00:05:08;1.30;99.90
18868;DHT22;9563;49.240;9.088;2023-03-01T00:07:35;1.30;99.90
18868;DHT22;9563;49.240;9.088;2023-03-01T00:10:01;1.40;99.90
18868;DHT22;9563;49.240;9.088;2023-03-01T00:12:28;1.40;99.90
18868;DHT22;9563;49.240;9.088;2023-03-01T00:14:57;1.30;99.90
18868;DHT22;9563;49.240;9.088;2023-03-01T00:17:23;1.30;99.90
18868;DHT22;9563;49.240;9.088;2023-03-01T00:19:50;1.30;99.90
18868;DHT22;9563;49.240;9.088;2023-03-01T00:22:17;1.20;99.90
18868;DHT22;9563;49.240;9.088;2023-03-01T00:24:44;1.20;99.90
18868;DHT22;9563;49.240;9.088;2023-03-01T00:27:11;1.20;99.90
18868;DHT22;9563;49.240;9.088;2023-03-01T00:29:37;1.20;99.90
18868;DHT22;9563;49.240;9.088;2023-03-01T00:32:06;1.20;99.90
18868;DHT22;9563;49.240;9.088;2023-03-01T00:34:33;1.20;99.90
18868;DHT22;9563;49.240;9.088;2023-03-01T00:36:59;1.20;99.90
18868;DHT22;9563;49.240;9.088;2023-03-01T00:39:31;1.20;99.90
18868;DHT22;9563;49.240;9.088;2023-03-01T00:41:59;1.10;99.90
18868;DHT22;9563;49.240;9.088;2023-03-01T00:44:25;1.10;99.90
18868;DHT22;9563;49.240;9.088;2023-03-01T00:46:53;1.10;99.90
18868;DHT22;9563;49.240;9.088;2023-03-01T00:49:22;1.10;99.90
18868;DHT22;9563;49.240;9.088;2023-03-01T00:51:50;1.10;99.90
18868;DHT22;9563;49.240;9.088;2023-03-01T00:54:16;1.20;99.90
18868;DHT22;9563;49.240;9.088;2023-03-01T00:56:43;1.20;99.90
18868;DHT22;9563;49.240;9.088;2023-03-01T00:59:10;1.10;99.90
18868;DHT22;9563;49.240;9.088;2023-03-01T01:01:37;1.10;99.90
18868;DHT22;9563;49.240;9.088;2023-03-01T01:04:06;1.10;99.90
18868;DHT22;9563;49.240;9.088;2023-03-01T01:06:37;1.00;99.90
18868;DHT22;9563;49.240;9.088;2023-03-01T01:09:05;1.00;99.90
18868;DHT22;9563;49.240;9.088;2023-03-01T01:11:32;0.90;99.90
18868;DHT22;9563;49.240;9.088;2023-03-01T01:14:00;0.90;99.90
18868;DHT22;9563;49.240;9.088;2023-03-01T01:16:28;1.00;99.90
18868;DHT22;9563;49.240;9.088;2023-03-01T01:18:55;0.90;99.90
18868;DHT22;9563;49.240;9.088;2023-03-01T01:21:23;1.00;99.90
18868;DHT22;9563;49.240;9.088;2023-03-01T01:23:52;1.00;99.90
18868;DHT22;9563;49.240;9.088;2023-03-01T01:26:20;1.00;99.90
18868;DHT22;9563;49.240;9.088;2023-03-01T01:28:47;0.90;99.90
18868;DHT22;9563;49.240;9.088;2023-03-01T01:31:15;1.00;99.90
18868;DHT22;9563;49.240;9.088;2023-03-01T01:33:42;0.90;99.90
18868;DHT22;9563;49.240;9.088;2023-03-01T01:36:09;0.90;99.90
18868;DHT22;9563;49.240;9.088;2023-03-01T01:38:37;0.90;99.90
18868;DHT22;9563;49.240;9.088;2023-03-01T01:41:06;0.90;99.90
18868;DHT22;9563;49.240;9.088;2023-03-01T01:43:35;0.80;99.90
18868;DHT22;9563;49.240;9.088;2023-03-01T01:46:04;0.80;99.90
18868;DHT22;9563;49.240;9.088;2023-03-01T01:48:37;0.70;99.90
18868;DHT22;9563;49.240;9.088;2023-03-01T01:51:09;0.80;99.90
18868;DHT22;9563;49.240;9.088;2023-03-01T01:53:38;0.70;99.90
18868;DHT22;9563;49.240;9.088;2023-03-01T01:56:09;0.70;99.90
18868;DHT22;9563;49.240;9.088;2023-03-01T01:58:38;0.70;99.90
18868;DHT22;9563;49.240;9.088;2023-03-01T02:01:07;0.70;99.90
18868;DHT22;9563;49.240;9.088;2023-03-01T02:03:35;0.80;99.90
18868;DHT22;9563;49.240;9.088;2023-03-01T02:06:12;0.90;99.90
18868;DHT22;9563;49.240;9.088;2023-03-01T02:08:42;0.90;99.90
18868;DHT22;9563;49.240;9.088;2023-03-01T02:11:10;0.90;99.90
18868;DHT22;9563;49.240;9.088;2023-03-01T02:13:40;0.80;99.90
18868;DHT22;9563;49.240;9.088;2023-03-01T02:16:09;0.90;99.90
18868;DHT22;9563;49.240;9.088;2023-03-01T02:18:38;0.80;99.90
18868;DHT22;9563;49.240;9.088;2023-03-01T02:21:17;0.90;99.90
18868;DHT22;9563;49.240;9.088;2023-03-01T02:23:47;0.90;99.90
18868;DHT22;9563;49.240;9.088;2023-03-01T02:26:19;0.90;99.90
18868;DHT22;9563;49.240;9.088;2023-03-01T02:28:48;0.80;99.90
18868;DHT22;9563;49.240;9.088;2023-03-01T02:31:18;0.80;99.90
18868;DHT22;9563;49.240;9.088;2023-03-01T02:34:04;0.80;99.90
18868;DHT22;9563;49.240;9.088;2023-03-01T02:36:34;0.70;99.90
18868;DHT22;9563;49.240;9.088;2023-03-01T02:39:05;0.70;99.90
18868;DHT22;9563;49.240;9.088;2023-03-01T02:41:42;0.70;99.90
18868;DHT22;9563;49.240;9.088;2023-03-01T02:44:11;0.60;99.90
18868;DHT22;9563;49.240;9.088;2023-03-01T02:46:42;0.60;99.90
18868;DHT22;9563;49.240;9.088;2023-03-01T02:49:22;0.60;99.90
18868;DHT22;9563;49.240;9.088;2023-03-01T02:52:01;0.60;99.90
18868;DHT22;9563;49.240;9.088;2023-03-01T02:54:36;0.60;99.90
18868;DHT22;9563;49.240;9.088;2023-03-01T02:57:05;0.60;99.90
18868;DHT22;9563;49.240;9.088;2023-03-01T02:59:35;0.60;99.90
18868;DHT22;9563;49.240;9.088;2023-03-01T03:02:04;0.60;99.90
18868;DHT22;9563;49.240;9.088;2023-03-01T03:04:31;0.60;99.90
18868;DHT22;9563;49.240;9.088;2023-03-01T03:06:58;0.60;99.90
18868;DHT22;9563;49.240;9.088;2023-03-01T03:09:25;0.50;99.90
18868;DHT22;9563;49.240;9.088;2023-03-01T03:11:52;0.50;99.90
18868;DHT22;9563;49.240;9.088;2023-03-01T03:14:19;0.60;99.90
18868;DHT22;9563;49.240;9.088;2023-03-01T03:16:48;0.60;99.90
18868;DHT22;9563;49.240;9.088;2023-03-01T03:19:16;0.60;99.90
18868;DHT22;9563;49.240;9.088;2023-03-01T03:21:43;0.60;99.90
18868;DHT22;9563;49.240;9.088;2023-03-01T03:24:10;0.50;99.90
18868;DHT22;9563;49.240;9.088;2023-03-01T03:26:37;0.50;99.90
18868;DHT22;9563;49.240;9.088;2023-03-01T03:29:04;0.50;99.90
18868;DHT22;9563;49.240;9.088;2023-03-01T03:31:30;0.50;99.90
18868;DHT22;9563;49.240;9.088;2023-03-01T03:33:59;0.50;99.90
18868;DHT22;9563;49.240;9.088;2023-03-01T03:36:26;0.50;99.90
18868;DHT22;9563;49.240;9.088;2023-03-01T03:38:52;0.50;99.90
18868;DHT22;9563;49.240;9.088;2023-03-01T03:41:19;0.50;99.90
18868;DHT22;9563;49.240;9.088;2023-03-01T03:43:46;0.40;99.90
18868;DHT22;9563;49.240;9.088;2023-03-01T03:46:14;0.50;99.90
18868;DHT22;9563;49.240;9.088;2023-03-01T03:48:43;0.40;99.90
18868;DHT22;9563;49.240;9.088;2023-03-01T03:51:13;0.40;99.90
18868;DHT22;9563;49.240;9.088;2023-03-01T03:53:40;0.40;99.90
18868;DHT22;9563;49.240;9.088;2023-03-01T03:56:08;0.40;99.90
18868;DHT22;9563;49.240;9.088;2023-03-01T03:58:35;0.40;99.90
18868;DHT22;9563;49.240;9.088;2023-03-01T04:01:03;0.40;99.90
18868;DHT22;9563;49.240;9.088;2023-03-01T04:03:30;0.40;99.90
18868;DHT22;9563;49.240;9.088;2023-03-01T04:05:59;0.30;99.90
18868;DHT22;9563;49.240;9.088;2023-03-01T04:08:27;0.30;99.90
18868;DHT22;9563;49.240;9.088;2023-03-01T04:10:58;0.40;99.90
18868;DHT22;9563;49.240;9.088;2023-03-01T04:13:26;0.30;99.90
18868;DHT22;9563;49.240;9.088;2023-03-01T04:15:53;0.30;99.90
18868;DHT22;9563;49.240;9.088;2023-03-01T04:18:22;0.30;99.90
18868;DHT22;9563;49.240;9.088;2023-03-01T04:20:50;0.20;99.90
18868;DHT22;9563;49.240;9.088;2023-03-01T04:23:20;0.30;99.90
18868;DHT22;9563;49.240;9.088;2023-03-01T04:25:50;0.30;99.90
18868;DHT22;9563;49.240;9.088;2023-03-01T04:28:19;0.30;99.90
18868;DHT22;9563;49.240;9.088;2023-03-01T04:30:46;0.30;99.90
18868;DHT22;9563;49.240;9.088;2023-03-01T04:33:13;0.20;99.90
18868;DHT22;9563;49.240;9.088;2023-03-01T04:35:40;0.30;99.90
18868;DHT22;9563;49.240;9.088;2023-03-01T04:38:07;0.20;99.90
18868;DHT22;9563;49.240;9.088;2023-03-01T04:40:34;0.20;99.90
18868;DHT22;9563;49.240;9.088;2023-03-01T04:43:02;0.20;99.90
18868;DHT22;9563;49.240;9.088;2023-03-01T04:45:30;0.20;99.90
18868;DHT22;9563;49.240;9.088;2023-03-01T04:47:57;0.20;99.90
18868;DHT22;9563;49.240;9.088;2023-03-01T04:50:24;0.30;99.90
18868;DHT22;9563;49.240;9.088;2023-03-01T04:52:51;0.30;99.90
18868;DHT22;9563;49.240;9.088;2023-03-01T04:55:18;0.20;99.90
18868;DHT22;9563;49.240;9.088;2023-03-01T04:57:45;0.20;99.90
18868;DHT22;9563;49.240;9.088;2023-03-01T05:00:14;0.30;99.90
18868;DHT22;9563;49.240;9.088;2023-03-01T05:02:49;0.20;99.90
18868;DHT22;9563;49.240;9.088;2023-03-01T05:05:23;0.10;99.90
18868;DHT22;9563;49.240;9.088;2023-03-01T05:07:54;0.20;99.90
18868;DHT22;9563;49.240;9.088;2023-03-01T05:10:22;0.20;99.90
18868;DHT22;9563;49.240;9.088;2023-03-01T05:12:49;0.10;99.90
18868;DHT22;9563;49.240;9.088;2023-03-01T05:15:19;0.00;99.90
18868;DHT22;9563;49.240;9.088;2023-03-01T05:17:47;0.10;99.90
18868;DHT22;9563;49.240;9.088;2023-03-01T05:20:14;0.10;99.90
18868;DHT22;9563;49.240;9.088;2023-03-01T05:22:41;0.10;99.90
18868;DHT22;9563;49.240;9.088;2023-03-01T05:25:08;0.10;99.90
18868;DHT22;9563;49.240;9.088;2023-03-01T05:27:35;0.10;99.90
18868;DHT22;9563;49.240;9.088;2023-03-01T05:30:03;0.10;99.90
18868;DHT22;9563;49.240;9.088;2023-03-01T05:32:40;0.00;99.90
18868;DHT22;9563;49.240;9.088;2023-03-01T05:35:08;0.10;99.90
18868;DHT22;9563;49.240;9.088;2023-03-01T05:37:39;0.00;99.90
18868;DHT22;9563;49.240;9.088;2023-03-01T05:40:06;0.00;99.90
18868;DHT22;9563;49.240;9.088;2023-03-01T05:42:42;-0.10;99.90
18868;DHT22;9563;49.240;9.088;2023-03-01T05:45:09;-0.10;99.90
18868;DHT22;9563;49.240;9.088;2023-03-01T05:47:38;-0.10;99.90
18868;DHT22;9563;49.240;9.088;2023-03-01T05:50:08;-0.10;99.90
18868;DHT22;9563;49.240;9.088;2023-03-01T05:52:35;0.00;99.90
18868;DHT22;9563;49.240;9.088;2023-03-01T05:55:02;0.00;99.90
18868;DHT22;9563;49.240;9.088;2023-03-01T05:57:29;-0.10;99.90
18868;DHT22;9563;49.240;9.088;2023-03-01T05:59:56;-0.10;99.90
18868;DHT22;9563;49.240;9.088;2023-03-01T06:02:23;-0.10;99.90
18868;DHT22;9563;49.240;9.088;2023-03-01T06:04:50;-0.20;99.90
18868;DHT22;9563;49.240;9.088;2023-03-01T06:07:18;-0.10;99.90
18868;DHT22;9563;49.240;9.088;2023-03-01T06:09:44;-0.10;99.90
18868;DHT22;9563;49.240;9.088;2023-03-01T06:12:11;-0.10;99.90
18868;DHT22;9563;49.240;9.088;2023-03-01T06:14:38;-0.10;99.90
18868;DHT22;9563;49.240;9.088;2023-03-01T06:17:05;-0.10;99.90
18868;DHT22;9563;49.240;9.088;2023-03-01T06:19:32;-0.10;99.90
18868;DHT22;9563;49.240;9.088;2023-03-01T06:21:59;-0.10;99.90
18868;DHT22;9563;49.240;9.088;2023-03-01T06:24:27;-0.10;99.90
18868;DHT22;9563;49.240;9.088;2023-03-01T06:26:54;-0.10;99.90
18868;DHT22;9563;49.240;9.088;2023-03-01T06:29:21;0.00;99.90
18868;DHT22;9563;49.240;9.088;2023-03-01T06:31:48;0.10;99.90
18868;DHT22;9563;49.240;9.088;2023-03-01T06:34:15;0.20;99.90
18868;DHT22;9563;49.240;9.088;2023-03-01T06:36:42;0.40;99.90
18868;DHT22;9563;49.240;9.088;2023-03-01T06:39:09;0.50;99.90
18868;DHT22;9563;49.240;9.088;2023-03-01T06:41:37;0.60;99.90
18868;DHT22;9563;49.240;9.088;2023-03-01T06:44:04;0.70;99.90
18868;DHT22;9563;49.240;9.088;2023-03-01T06:46:31;0.70;99.90
18868;DHT22;9563;49.240;9.088;2023-03-01T06:48:58;0.80;99.90
18868;DHT22;9563;49.240;9.088;2023-03-01T06:51:25;0.90;99.90
18868;DHT22;9563;49.240;9.088;2023-03-01T06:53:52;0.80;99.90
18868;DHT22;9563;49.240;9.088;2023-03-01T06:56:19;0.90;99.90
18868;DHT22;9563;49.240;9.088;2023-03-01T06:58:47;0.80;99.90
18868;DHT22;9563;49.240;9.088;2023-03-01T07:01:14;1.00;99.90
18868;DHT22;9563;49.240;9.088;2023-03-01T07:03:41;1.00;99.90
18868;DHT22;9563;49.240;9.088;2023-03-01T07:06:09;1.10;99.90
18868;DHT22;9563;49.240;9.088;2023-03-01T07:08:36;1.20;99.90
18868;DHT22;9563;49.240;9.088;2023-03-01T07:11:03;1.40;99.90
18868;DHT22;9563;49.240;9.088;2023-03-01T07:13:31;1.60;99.90
18868;DHT22;9563;49.240;9.088;2023-03-01T07:15:59;1.70;99.90
18868;DHT22;9563;49.240;9.088;2023-03-01T07:18:26;2.00;99.90
18868;DHT22;9563;49.240;9.088;2023-03-01T07:20:52;2.10;99.90
18868;DHT22;9563;49.240;9.088;2023-03-01T07:23:19;2.20;99.90
18868;DHT22;9563;49.240;9.088;2023-03-01T07:25:51;2.30;99.90
18868;DHT22;9563;49.240;9.088;2023-03-01T07:28:18;2.40;99.90
18868;DHT22;9563;49.240;9.088;2023-03-01T07:30:45;2.60;99.90
18868;DHT22;9563;49.240;9.088;2023-03-01T07:33:13;2.70;99.90
18868;DHT22;9563;49.240;9.088;2023-03-01T07:35:40;2.90;99.90
18868;DHT22;9563;49.240;9.088;2023-03-01T07:38:06;3.10;99.90
18868;DHT22;9563;49.240;9.088;2023-03-01T07:40:33;3.30;99.90
18868;DHT22;9563;49.240;9.088;2023-03-01T07:43:00;3.50;99.90
18868;DHT22;9563;49.240;9.088;2023-03-01T07:45:28;3.60;99.90
18868;DHT22;9563;49.240;9.088;2023-03-01T07:47:55;3.70;99.90
18868;DHT22;9563;49.240;9.088;2023-03-01T07:50:23;3.90;99.90
18868;DHT22;9563;49.240;9.088;2023-03-01T07:52:50;4.00;99.90
18868;DHT22;9563;49.240;9.088;2023-03-01T07:55:17;4.00;99.90
18868;DHT22;9563;49.240;9.088;2023-03-01T07:57:44;4.20;99.90
18868;DHT22;9563;49.240;9.088;2023-03-01T08:00:12;4.30;99.90
18868;DHT22;9563;49.240;9.088;2023-03-01T08:02:39;4.40;99.90
18868;DHT22;9563;49.240;9.088;2023-03-01T08:05:07;4.50;99.90
18868;DHT22;9563;49.240;9.088;2023-03-01T08:07:36;4.60;99.90
18868;DHT22;9563;49.240;9.088;2023-03-01T08:10:03;4.90;99.90
18868;DHT22;9563;49.240;9.088;2023-03-01T08:12:30;4.90;99.90
18868;DHT22;9563;49.240;9.088;2023-03-01T08:14:57;4.80;99.90
18868;DHT22;9563;49.240;9.088;2023-03-01T08:17:24;5.00;99.90
18868;DHT22;9563;49.240;9.088;2023-03-01T08:19:50;5.00;99.90
18868;DHT22;9563;49.240;9.088;2023-03-01T08:22:17;4.90;99.90
18868;DHT22;9563;49.240;9.088;2023-03-01T08:24:46;5.10;99.90
18868;DHT22;9563;49.240;9.088;2023-03-01T08:27:15;5.20;99.90
18868;DHT22;9563;49.240;9.088;2023-03-01T08:29:41;5.30;99.90
18868;DHT22;9563;49.240;9.088;2023-03-01T08:32:08;5.50;99.90
18868;DHT22;9563;49.240;9.088;2023-03-01T08:34:35;5.50;99.90
18868;DHT22;9563;49.240;9.088;2023-03-01T08:37:02;5.70;99.90
18868;DHT22;9563;49.240;9.088;2023-03-01T08:39:29;5.80;99.90
18868;DHT22;9563;49.240;9.088;2023-03-01T08:41:57;5.90;99.90
18868;DHT22;9563;49.240;9.088;2023-03-01T08:44:24;6.10;99.90
18868;DHT22;9563;49.240;9.088;2023-03-01T08:46:51;6.30;99.90
18868;DHT22;9563;49.240;9.088;2023-03-01T08:49:19;6.30;99.90
18868;DHT22;9563;49.240;9.088;2023-03-01T08:51:47;6.50;99.90
18868;DHT22;9563;49.240;9.088;2023-03-01T08:54:15;6.50;99.90
18868;DHT22;9563;49.240;9.088;2023-03-01T08:56:44;6.60;99.90
18868;DHT22;9563;49.240;9.088;2023-03-01T08:59:16;6.70;99.90
18868;DHT22;9563;49.240;9.088;2023-03-01T09:01:43;6.80;99.90
18868;DHT22;9563;49.240;9.088;2023-03-01T09:04:11;6.80;99.90
18868;DHT22;9563;49.240;9.088;2023-03-01T09:06:38;6.90;99.90
18868;DHT22;9563;49.240;9.088;2023-03-01T09:09:05;7.00;99.90
18868;DHT22;9563;49.240;9.088;2023-03-01T09:11:34;7.20;99.90
18868;DHT22;9563;49.240;9.088;2023-03-01T09:14:05;7.20;99.90
18868;DHT22;9563;49.240;9.088;2023-03-01T09:16:34;7.30;99.90
18868;DHT22;9563;49.240;9.088;2023-03-01T09:19:02;7.40;99.90
18868;DHT22;9563;49.240;9.088;2023-03-01T09:21:29;7.50;99.30
18868;DHT22;9563;49.240;9.088;2023-03-01T09:23:56;7.40;99.90
18868;DHT22;9563;49.240;9.088;2023-03-01T09:26:24;7.30;99.90
18868;DHT22;9563;49.240;9.088;2023-03-01T09:28:52;7.60;99.90
18868;DHT22;9563;49.240;9.088;2023-03-01T09:31:20;7.70;99.90
18868;DHT22;9563;49.240;9.088;2023-03-01T09:33:50;7.90;99.90
18868;DHT22;9563;49.240;9.088;2023-03-01T09:36:19;8.10;98.70
18868;DHT22;9563;49.240;9.088;2023-03-01T09:38:47;8.40;98.10
18868;DHT22;9563;49.240;9.088;2023-03-01T09:44:10;8.80;97.00
18868;DHT22;9563;49.240;9.088;2023-03-01T09:46:43;9.10;98.70
18868;DHT22;9563;49.240;9.088;2023-03-01T09:49:15;9.30;95.80
18868;DHT22;9563;49.240;9.088;2023-03-01T09:51:49;9.40;95.00
18868;DHT22;9563;49.240;9.088;2023-03-01T09:54:20;9.60;94.40
18868;DHT22;9563;49.240;9.088;2023-03-01T09:56:59;9.90;94.00
18868;DHT22;9563;49.240;9.088;2023-03-01T09:59:37;10.00;92.60
18868;DHT22;9563;49.240;9.088;2023-03-01T10:02:24;10.00;92.20
18868;DHT22;9563;49.240;9.088;2023-03-01T10:04:58;10.00;91.60
18868;DHT22;9563;49.240;9.088;2023-03-01T10:07:36;9.90;92.90
18868;DHT22;9563;49.240;9.088;2023-03-01T10:10:06;10.10;92.30
18868;DHT22;9563;49.240;9.088;2023-03-01T10:12:35;10.20;92.30
18868;DHT22;9563;49.240;9.088;2023-03-01T10:15:09;10.10;91.60
18868;DHT22;9563;49.240;9.088;2023-03-01T10:17:41;10.40;91.90
18868;DHT22;9563;49.240;9.088;2023-03-01T10:20:19;10.60;90.20
18868;DHT22;9563;49.240;9.088;2023-03-01T10:22:46;10.70;90.50
18868;DHT22;9563;49.240;9.088;2023-03-01T10:25:20;10.60;90.20
18868;DHT22;9563;49.240;9.088;2023-03-01T10:27:52;10.90;89.20
18868;DHT22;9563;49.240;9.088;2023-03-01T10:30:22;10.80;88.50
18868;DHT22;9563;49.240;9.088;2023-03-01T10:32:50;10.80;87.10
18868;DHT22;9563;49.240;9.088;2023-03-01T10:35:22;10.80;90.00
18868;DHT22;9563;49.240;9.088;2023-03-01T10:38:02;11.30;90.50
18868;DHT22;9563;49.240;9.088;2023-03-01T10:40:29;11.40;88.50
18868;DHT22;9563;49.240;9.088;2023-03-01T10:42:58;11.50;85.90
18868;DHT22;9563;49.240;9.088;2023-03-01T10:45:34;11.50;84.10
18868;DHT22;9563;49.240;9.088;2023-03-01T10:48:09;11.90;86.60
18868;DHT22;9563;49.240;9.088;2023-03-01T10:50:39;12.10;84.30
18868;DHT22;9563;49.240;9.088;2023-03-01T10:53:22;12.10;84.70
18868;DHT22;9563;49.240;9.088;2023-03-01T10:55:58;12.30;82.80
18868;DHT22;9563;49.240;9.088;2023-03-01T10:58:26;12.30;82.90
18868;DHT22;9563;49.240;9.088;2023-03-01T11:00:54;12.20;82.70
18868;DHT22;9563;49.240;9.088;2023-03-01T11:03:23;12.10;81.20
18868;DHT22;9563;49.240;9.088;2023-03-01T11:05:55;11.90;79.90
18868;DHT22;9563;49.240;9.088;2023-03-01T11:08:40;11.90;81.20
18868;DHT22;9563;49.240;9.088;2023-03-01T11:11:17;11.90;81.10
18868;DHT22;9563;49.240;9.088;2023-03-01T11:13:51;11.90;81.90
18868;DHT22;9563;49.240;9.088;2023-03-01T11:16:25;11.90;81.00
18868;DHT22;9563;49.240;9.088;2023-03-01T11:19:03;12.00;80.20
18868;DHT22;9563;49.240;9.088;2023-03-01T11:21:33;12.40;82.70
18868;DHT22;9563;49.240;9.088;2023-03-01T11:24:03;12.70;80.60
18868;DHT22;9563;49.240;9.088;2023-03-01T11:26:33;12.70;78.80
18868;DHT22;9563;49.240;9.088;2023-03-01T11:29:05;12.80;78.00
18868;DHT22;9563;49.240;9.088;2023-03-01T11:31:34;12.70;78.80
18868;DHT22;9563;49.240;9.088;2023-03-01T11:34:09;12.70;78.40
18868;DHT22;9563;49.240;9.088;2023-03-01T11:36:44;12.60;79.20
18868;DHT22;9563;49.240;9.088;2023-03-01T11:39:20;12.90;80.30
18868;DHT22;9563;49.240;9.088;2023-03-01T11:41:51;12.80;79.00
18868;DHT22;9563;49.240;9.088;2023-03-01T11:44:21;12.60;78.10
18868;DHT22;9563;49.240;9.088;2023-03-01T11:47:04;12.60;78.00
18868;DHT22;9563;49.240;9.088;2023-03-01T11:49:55;12.20;79.50
18868;DHT22;9563;49.240;9.088;2023-03-01T11:52:38;11.80;79.00
18868;DHT22;9563;49.240;9.088;2023-03-01T11:55:23;11.90;81.30
18868;DHT22;9563;49.240;9.088;2023-03-01T11:58:20;12.20;79.20
18868;DHT22;9563;49.240;9.088;2023-03-01T12:01:03;12.30;78.80
18868;DHT22;9563;49.240;9.088;2023-03-01T12:03:50;12.00;79.60
18868;DHT22;9563;49.240;9.088;2023-03-01T12:06:32;12.10;79.40
18868;DHT22;9563;49.240;9.088;2023-03-01T12:12:07;11.80;81.50
18868;DHT22;9563;49.240;9.088;2023-03-01T12:14:55;12.00;80.90
18868;DHT22;9563;49.240;9.088;2023-03-01T12:17:48;11.90;80.30
18868;DHT22;9563;49.240;9.088;2023-03-01T12:20:26;11.80;80.70
18868;DHT22;9563;49.240;9.088;2023-03-01T12:23:18;12.00;80.10
18868;DHT22;9563;49.240;9.088;2023-03-01T12:25:53;11.90;79.80
18868;DHT22;9563;49.240;9.088;2023-03-01T12:28:35;11.70;80.90
18868;DHT22;9563;49.240;9.088;2023-03-01T12:34:25;12.10;80.20
18868;DHT22;9563;49.240;9.088;2023-03-01T12:37:15;12.00;81.50
18868;DHT22;9563;49.240;9.088;2023-03-01T12:39:56;12.10;81.50
18868;DHT22;9563;49.240;9.088;2023-03-01T12:42:33;12.00;81.10
18868;DHT22;9563;49.240;9.088;2023-03-01T12:48:14;11.90;81.80
18868;DHT22;9563;49.240;9.088;2023-03-01T12:50:47;12.20;82.00
18868;DHT22;9563;49.240;9.088;2023-03-01T12:53:22;12.20;80.70
18868;DHT22;9563;49.240;9.088;2023-03-01T12:55:50;12.00;79.60
18868;DHT22;9563;49.240;9.088;2023-03-01T12:58:25;11.70;82.60
18868;DHT22;9563;49.240;9.088;2023-03-01T13:01:07;11.60;81.90
18868;DHT22;9563;49.240;9.088;2023-03-01T13:06:37;11.60;82.00
18868;DHT22;9563;49.240;9.088;2023-03-01T13:09:13;12.10;83.50
18868;DHT22;9563;49.240;9.088;2023-03-01T13:11:41;12.20;80.50
18868;DHT22;9563;49.240;9.088;2023-03-01T13:14:35;11.90;81.10
18868;DHT22;9563;49.240;9.088;2023-03-01T13:17:02;11.60;81.00
18868;DHT22;9563;49.240;9.088;2023-03-01T13:19:29;11.50;80.90
18868;DHT22;9563;49.240;9.088;2023-03-01T13:21:58;11.40;82.00
18868;DHT22;9563;49.240;9.088;2023-03-01T13:24:27;11.30;81.10
18868;DHT22;9563;49.240;9.088;2023-03-01T13:27:23;11.30;81.90
18868;DHT22;9563;49.240;9.088;2023-03-01T13:29:57;11.30;82.20
18868;DHT22;9563;49.240;9.088;2023-03-01T13:32:29;11.40;83.10
18868;DHT22;9563;49.240;9.088;2023-03-01T13:34:59;11.50;81.10
18868;DHT22;9563;49.240;9.088;2023-03-01T13:37:29;11.50;81.10
18868;DHT22;9563;49.240;9.088;2023-03-01T13:40:02;11.50;83.00
18868;DHT22;9563;49.240;9.088;2023-03-01T13:42:42;11.50;80.80
18868;DHT22;9563;49.240;9.088;2023-03-01T13:45:20;11.50;81.20
18868;DHT22;9563;49.240;9.088;2023-03-01T13:47:52;11.50;81.90
18868;DHT22;9563;49.240;9.088;2023-03-01T13:50:21;11.60;81.00
18868;DHT22;9563;49.240;9.088;2023-03-01T13:52:53;11.40;80.60
18868;DHT22;9563;49.240;9.088;2023-03-01T13:55:27;11.60;81.60
18868;DHT22;9563;49.240;9.088;2023-03-01T13:57:58;11.50;80.90
18868;DHT22;9563;49.240;9.088;2023-03-01T14:00:38;11.30;82.30
18868;DHT22;9563;49.240;9.088;2023-03-01T14:03:10;11.20;82.40
18868;DHT22;9563;49.240;9.088;2023-03-01T14:05:38;11.20;82.70
18868;DHT22;9563;49.240;9.088;2023-03-01T14:08:17;11.00;82.00
18868;DHT22;9563;49.240;9.088;2023-03-01T14:10:54;11.10;83.10
18868;DHT22;9563;49.240;9.088;2023-03-01T14:13:31;11.10;82.70
18868;DHT22;9563;49.240;9.088;2023-03-01T14:16:27;11.20;82.50
18868;DHT22;9563;49.240;9.088;2023-03-01T14:19:08;10.90;82.90
18868;DHT22;9563;49.240;9.088;2023-03-01T14:21:41;10.80;84.30
18868;DHT22;9563;49.240;9.088;2023-03-01T14:24:17;10.70;83.50
18868;DHT22;9563;49.240;9.088;2023-03-01T14:26:44;10.60;84.60
18868;DHT22;9563;49.240;9.088;2023-03-01T14:29:24;10.70;84.70
18868;DHT22;9563;49.240;9.088;2023-03-01T14:31:52;10.70;84.10
18868;DHT22;9563;49.240;9.088;2023-03-01T14:34:21;10.60;84.30
18868;DHT22;9563;49.240;9.088;2023-03-01T14:36:48;10.50;84.70
18868;DHT22;9563;49.240;9.088;2023-03-01T14:39:22;10.50;84.90
18868;DHT22;9563;49.240;9.088;2023-03-01T14:41:51;10.60;86.00
18868;DHT22;9563;49.240;9.088;2023-03-01T14:44:21;10.70;84.90
18868;DHT22;9563;49.240;9.088;2023-03-01T14:46:54;10.70;84.90
18868;DHT22;9563;49.240;9.088;2023-03-01T14:49:24;10.70;84.60
18868;DHT22;9563;49.240;9.088;2023-03-01T14:51:54;10.60;84.60
18868;DHT22;9563;49.240;9.088;2023-03-01T14:54:25;10.60;84.80
18868;DHT22;9563;49.240;9.088;2023-03-01T14:56:57;10.80;84.90
18868;DHT22;9563;49.240;9.088;2023-03-01T14:59:24;10.60;83.60
18868;DHT22;9563;49.240;9.088;2023-03-01T15:01:55;10.60;84.80
18868;DHT22;9563;49.240;9.088;2023-03-01T15:04:23;10.60;84.30
18868;DHT22;9563;49.240;9.088;2023-03-01T15:06:52;10.50;84.50
18868;DHT22;9563;49.240;9.088;2023-03-01T15:09:19;10.40;85.10
18868;DHT22;9563;49.240;9.088;2023-03-01T15:11:46;10.50;86.20
18868;DHT22;9563;49.240;9.088;2023-03-01T15:14:26;10.70;85.50
18868;DHT22;9563;49.240;9.088;2023-03-01T15:16:55;10.80;84.90
18868;DHT22;9563;49.240;9.088;2023-03-01T15:19:24;10.80;84.00
18868;DHT22;9563;49.240;9.088;2023-03-01T15:21:54;10.70;84.00
18868;DHT22;9563;49.240;9.088;2023-03-01T15:24:24;10.80;84.10
18868;DHT22;9563;49.240;9.088;2023-03-01T15:26:55;10.80;85.20
18868;DHT22;9563;49.240;9.088;2023-03-01T15:29:24;10.80;83.50
18868;DHT22;9563;49.240;9.088;2023-03-01T15:31:58;10.70;83.90
18868;DHT22;9563;49.240;9.088;2023-03-01T15:34:28;10.50;84.50
18868;DHT22;9563;49.240;9.088;2023-03-01T15:36:56;10.50;84.70
18868;DHT22;9563;49.240;9.088;2023-03-01T15:39:33;10.40;85.10
18868;DHT22;9563;49.240;9.088;2023-03-01T15:42:04;10.40;85.20
18868;DHT22;9563;49.240;9.088;2023-03-01T15:44:33;10.30;84.80
18868;DHT22;9563;49.240;9.088;2023-03-01T15:47:07;10.30;85.60
18868;DHT22;9563;49.240;9.088;2023-03-01T15:49:37;10.30;86.30
18868;DHT22;9563;49.240;9.088;2023-03-01T15:52:08;10.30;86.10
18868;DHT22;9563;49.240;9.088;2023-03-01T15:54:39;10.20;85.60
18868;DHT22;9563;49.240;9.088;2023-03-01T15:57:10;10.20;87.40
18868;DHT22;9563;49.240;9.088;2023-03-01T15:59:39;10.10;86.20
18868;DHT22;9563;49.240;9.088;2023-03-01T16:02:10;10.10;86.80
18868;DHT22;9563;49.240;9.088;2023-03-01T16:04:38;10.20;87.20
18868;DHT22;9563;49.240;9.088;2023-03-01T16:07:06;10.10;86.80
18868;DHT22;9563;49.240;9.088;2023-03-01T16:09:33;10.00;86.50
18868;DHT22;9563;49.240;9.088;2023-03-01T16:11:59;9.90;86.50
18868;DHT22;9563;49.240;9.088;2023-03-01T16:14:27;9.90;86.80
18868;DHT22;9563;49.240;9.088;2023-03-01T16:16:54;9.90;87.30
18868;DHT22;9563;49.240;9.088;2023-03-01T16:19:22;9.90;87.30
18868;DHT22;9563;49.240;9.088;2023-03-01T16:21:49;9.80;88.50
18868;DHT22;9563;49.240;9.088;2023-03-01T16:24:16;9.90;88.30
18868;DHT22;9563;49.240;9.088;2023-03-01T16:26:43;10.10;87.60
18868;DHT22;9563;49.240;9.088;2023-03-01T16:29:10;10.20;86.70